Sweetwater, Nebraska
Current Conditions -  °F | °C
As of 5:15 PM on Thursday 23 Oct 2014 (Local Time) from KEAR Reporting Station
Clear Clear  
Wind Chill: 61°   Ceiling: Unl
Heat Index: 61°   Visibility: 10mi
Dew Point: 54°   Wind: 12mph
Humidity: 77%   Direction: 170°S
Pressure: 30.02"   Gusts: NA
Location:  41.0033°N, 98.8321°W
Report Text: KEAR 232215Z 17010KT 10SM CLR 16/12 A3002 RMK AO1
Loading
Personal Weather Stations






























Interactive Weather Map
Tropical Storm Tracking
New forecast layout! Learn more

10-Day Weather Forecast

Advertisements
Track Severe Weather on mobile